Time,TemperatureF,DewpointF,PressureIn,WindDirection,WindDirectionDegrees,WindSpeedMPH,WindSpeedGustMPH,Humidity,HourlyPrecipIn,Conditions,Clouds,dailyrainin,SoftwareType,DateUTC
2013-01-05 00:00:00,32.3,22.6,29.77,SSW,206,0.0,3.0,67,0.00,,,0.02,Wunderground v.1.15,2013-01-05 05:00:00,
2013-01-05 00:05:00,32.2,22.8,29.77,SSW,206,0.0,3.0,68,0.00,,,0.00,Wunderground v.1.15,2013-01-05 05:05:00,
2013-01-05 00:10:00,32.0,22.6,29.77,SW,230,0.0,3.0,68,0.00,,,0.00,Wunderground v.1.15,2013-01-05 05:10:00,
2013-01-05 00:20:00,31.7,22.3,29.77,WSW,239,0.0,3.0,68,0.00,,,0.00,Wunderground v.1.15,2013-01-05 05:20:00,
2013-01-05 00:25:00,31.6,22.2,29.77,WNW,296,1.0,3.0,68,0.00,,,0.00,Wunderground v.1.15,2013-01-05 05:25:00,
2013-01-05 00:30:00,31.5,22.5,29.77,WNW,296,1.0,1.0,69,0.00,,,0.00,Wunderground v.1.15,2013-01-05 05:30:00,
2013-01-05 00:40:00,31.5,22.5,29.77,West,274,1.0,1.0,69,0.00,,,0.00,Wunderground v.1.15,2013-01-05 05:40:00,
2013-01-05 00:45:00,31.4,22.4,29.77,West,272,0.0,3.0,69,0.00,,,0.00,Wunderground v.1.15,2013-01-05 05:45:00,
2013-01-05 00:55:00,31.5,22.8,29.77,South,178,1.0,3.0,70,0.00,,,0.00,Wunderground v.1.15,2013-01-05 05:55:00,
2013-01-05 01:05:00,31.4,22.7,29.77,West,276,1.0,3.0,70,0.00,,,0.00,Wunderground v.1.15,2013-01-05 06:05:00,
2013-01-05 01:10:00,31.5,22.8,29.78,West,265,1.0,3.0,70,0.00,,,0.00,Wunderground v.1.15,2013-01-05 06:10:00,
2013-01-05 01:15:00,31.6,22.9,29.78,SE,136,1.0,3.0,70,0.00,,,0.00,Wunderground v.1.15,2013-01-05 06:15:00,
2013-01-05 01:25:00,31.6,23.3,29.79,WSW,241,1.0,3.0,71,0.00,,,0.00,Wunderground v.1.15,2013-01-05 06:25:00,
2013-01-05 01:35:00,31.5,23.5,29.79,West,261,0.0,3.0,72,0.00,,,0.00,Wunderground v.1.15,2013-01-05 06:35:00,
2013-01-05 01:40:00,31.5,23.5,29.79,WSW,257,0.0,3.0,72,0.00,,,0.00,Wunderground v.1.15,2013-01-05 06:40:00,
2013-01-05 01:50:00,31.8,23.5,29.80,WSW,252,0.0,3.0,71,0.00,,,0.00,Wunderground v.1.15,2013-01-05 06:50:00,
2013-01-05 02:00:00,32.1,24.1,29.80,WSW,242,1.0,1.0,72,0.00,,,0.00,Wunderground v.1.15,2013-01-05 07:00:00,
2013-01-05 02:05:00,32.1,24.1,29.80,NW,309,1.0,3.0,72,0.00,,,0.00,Wunderground v.1.15,2013-01-05 07:05:00,
2013-01-05 02:15:00,32.3,24.3,29.81,WSW,252,1.0,3.0,72,0.00,,,0.00,Wunderground v.1.15,2013-01-05 07:15:00,
2013-01-05 02:25:00,32.4,24.4,29.81,East,85,1.0,4.0,72,0.00,,,0.00,Wunderground v.1.15,2013-01-05 07:25:00,
2013-01-05 02:30:00,32.4,24.7,29.81,West,272,1.0,1.0,73,0.00,,,0.00,Wunderground v.1.15,2013-01-05 07:30:00,
2013-01-05 02:40:00,32.1,24.4,29.80,West,264,0.0,4.0,73,0.00,,,0.00,Wunderground v.1.15,2013-01-05 07:40:00,
2013-01-05 02:50:00,31.5,24.2,29.81,NW,324,1.0,1.0,74,0.00,,,0.00,Wunderground v.1.15,2013-01-05 07:50:00,
2013-01-05 03:01:00,31.4,24.1,29.81,East,88,1.0,1.0,74,0.00,,,0.00,Wunderground v.1.15,2013-01-05 08:01:00,
2013-01-05 03:10:00,31.2,24.2,29.82,SSW,212,0.0,0.0,75,0.00,,,0.00,Wunderground v.1.15,2013-01-05 08:10:00,
2013-01-05 03:20:00,31.4,24.1,29.82,West,261,1.0,1.0,74,0.00,,,0.00,Wunderground v.1.15,2013-01-05 08:20:00,
2013-01-05 03:25:00,31.4,24.4,29.82,WNW,298,1.0,2.0,75,0.00,,,0.00,Wunderground v.1.15,2013-01-05 08:25:00,
2013-01-05 03:35:00,32.0,25.0,29.83,WSW,252,1.0,6.0,75,0.00,,,0.00,Wunderground v.1.15,2013-01-05 08:35:00,
2013-01-05 03:45:00,32.1,25.1,29.83,WSW,249,0.0,6.0,75,0.00,,,0.00,Wunderground v.1.15,2013-01-05 08:45:00,
2013-01-05 03:55:00,32.3,24.9,29.83,WSW,254,1.0,6.0,74,0.00,,,0.00,Wunderground v.1.15,2013-01-05 08:55:00,
2013-01-05 04:05:00,32.3,24.9,29.83,West,269,1.0,6.0,74,0.00,,,0.00,Wunderground v.1.15,2013-01-05 09:05:00,
2013-01-05 07:30:00,31.5,22.8,29.95,WSW,247,0.0,6.0,70,0.00,,,0.00,Wunderground v.1.15,2013-01-05 12:30:00,
2013-01-05 07:40:00,31.7,23.0,29.96,East,98,1.0,1.0,70,0.00,,,0.00,Wunderground v.1.15,2013-01-05 12:40:00,
2013-01-05 07:45:00,31.9,22.9,29.96,SE,130,0.0,6.0,69,0.00,,,0.00,Wunderground v.1.15,2013-01-05 12:45:00,
2013-01-05 07:55:00,32.2,23.2,29.97,West,274,1.0,6.0,69,0.00,,,0.00,Wunderground v.1.15,2013-01-05 12:55:00,
2013-01-05 08:00:00,32.4,23.4,29.98,West,259,1.0,1.0,69,0.00,,,0.00,Wunderground v.1.15,2013-01-05 13:00:00,
2013-01-05 08:10:00,32.7,23.3,29.98,SW,225,0.0,6.0,68,0.00,,,0.00,Wunderground v.1.15,2013-01-05 13:10:00,
2013-01-05 08:20:00,33.2,23.8,29.99,SSW,196,1.0,6.0,68,0.00,,,0.00,Wunderground v.1.15,2013-01-05 13:20:00,
2013-01-05 08:25:00,33.4,23.6,30.00,East,93,1.0,6.0,67,0.00,,,0.00,Wunderground v.1.15,2013-01-05 13:25:00,
2013-01-05 08:35:00,33.7,23.9,30.00,South,179,0.0,6.0,67,0.00,,,0.00,Wunderground v.1.15,2013-01-05 13:35:00,
2013-01-05 08:45:00,34.0,24.5,30.01,ESE,121,1.0,6.0,68,0.00,,,0.00,Wunderground v.1.15,2013-01-05 13:45:00,
2013-01-05 08:55:00,34.4,24.6,30.02,SW,227,1.0,6.0,67,0.00,,,0.00,Wunderground v.1.15,2013-01-05 13:55:00,
2013-01-05 09:00:00,34.4,24.9,30.03,SW,229,1.0,1.0,68,0.00,,,0.00,Wunderground v.1.15,2013-01-05 14:00:00,
2013-01-05 09:10:00,34.4,24.9,30.03,East,92,1.0,6.0,68,0.00,,,0.00,Wunderground v.1.15,2013-01-05 14:10:00,
2013-01-05 09:15:00,34.4,24.2,30.03,West,273,2.0,6.0,66,0.00,,,0.00,Wunderground v.1.15,2013-01-05 14:15:00,
2013-01-05 09:25:00,34.4,23.8,30.04,West,273,2.0,6.0,65,0.00,,,0.00,Wunderground v.1.15,2013-01-05 14:25:00,
2013-01-05 09:30:00,34.4,23.5,30.05,WNW,293,2.0,2.0,64,0.00,,,0.00,Wunderground v.1.15,2013-01-05 14:30:00,
2013-01-05 09:40:00,34.4,23.5,30.06,East,90,2.0,6.0,64,0.00,,,0.00,Wunderground v.1.15,2013-01-05 14:40:00,
2013-01-05 09:45:00,34.4,23.1,30.06,ESE,103,2.0,6.0,63,0.00,,,0.00,Wunderground v.1.15,2013-01-05 14:45:00,
2013-01-05 09:55:00,34.4,22.7,30.07,SE,146,2.0,6.0,62,0.00,,,0.00,Wunderground v.1.15,2013-01-05 14:55:00,
2013-01-05 10:05:00,34.4,21.5,30.08,SW,223,2.0,6.0,59,0.00,,,0.00,Wunderground v.1.15,2013-01-05 15:05:00,
2013-01-05 10:15:00,34.4,21.1,30.08,NE,40,2.0,6.0,58,0.00,,,0.00,Wunderground v.1.15,2013-01-05 15:15:00,
2013-01-05 10:25:00,34.4,21.1,30.09,SE,132,2.0,6.0,58,0.00,,,0.00,Wunderground v.1.15,2013-01-05 15:25:00,
2013-01-05 10:30:00,34.4,21.1,30.08,East,84,1.0,1.0,58,0.00,,,0.00,Wunderground v.1.15,2013-01-05 15:30:00,
2013-01-05 10:40:00,34.6,20.9,30.08,WSW,238,2.0,6.0,57,0.00,,,0.00,Wunderground v.1.15,2013-01-05 15:40:00,
2013-01-05 10:50:00,35.5,20.9,30.09,WNW,303,1.0,1.0,55,0.00,,,0.00,Wunderground v.1.15,2013-01-05 15:50:00,
2013-01-05 11:01:00,35.8,21.2,30.09,West,277,1.0,6.0,55,0.00,,,0.00,Wunderground v.1.15,2013-01-05 16:01:00,
2013-01-05 11:10:00,36.5,21.4,30.09,South,182,1.0,1.0,54,0.00,,,0.00,Wunderground v.1.15,2013-01-05 16:10:00,
2013-01-05 11:20:00,36.8,21.3,30.09,SW,228,1.0,1.0,53,0.00,,,0.00,Wunderground v.1.15,2013-01-05 16:20:00,
2013-01-05 11:30:00,36.7,21.2,30.09,NE,42,1.0,1.0,53,0.00,,,0.00,Wunderground v.1.15,2013-01-05 16:30:00,
2013-01-05 11:35:00,36.7,21.2,30.10,NE,47,1.0,6.0,53,0.00,,,0.00,Wunderground v.1.15,2013-01-05 16:35:00,
2013-01-05 11:45:00,36.8,21.3,30.10,East,101,1.0,6.0,53,0.00,,,0.00,Wunderground v.1.15,2013-01-05 16:45:00,
2013-01-05 11:55:00,36.6,20.6,30.10,ENE,73,1.0,6.0,52,0.00,,,0.00,Wunderground v.1.15,2013-01-05 16:55:00,
2013-01-05 12:00:00,36.8,20.8,30.09,WSW,249,1.0,6.0,52,0.00,,,0.00,Wunderground v.1.15,2013-01-05 17:00:00,
2013-01-05 12:10:00,36.9,20.4,30.10,ENE,63,1.0,6.0,51,0.00,,,0.00,Wunderground v.1.15,2013-01-05 17:10:00,
2013-01-05 12:15:00,36.9,20.4,30.10,SW,233,1.0,6.0,51,0.00,,,0.00,Wunderground v.1.15,2013-01-05 17:15:00,
2013-01-05 12:25:00,36.8,20.3,30.10,West,264,2.0,6.0,51,0.00,,,0.00,Wunderground v.1.15,2013-01-05 17:25:00,
2013-01-05 12:35:00,36.8,20.3,30.10,ESE,123,2.0,6.0,51,0.00,,,0.00,Wunderground v.1.15,2013-01-05 17:35:00,
2013-01-05 12:45:00,36.8,19.9,30.11,West,268,2.0,4.0,50,0.00,,,0.01,Wunderground v.1.15,2013-01-05 17:45:00,
2013-01-05 12:55:00,36.8,21.3,30.11,WSW,246,2.0,6.0,53,0.00,,,0.01,Wunderground v.1.15,2013-01-05 17:55:00,
2013-01-05 13:05:00,36.8,20.3,30.12,ESE,105,1.0,6.0,51,0.00,,,0.01,Wunderground v.1.15,2013-01-05 18:05:00,
2013-01-05 13:10:00,36.9,20.9,30.12,East,95,1.0,7.0,52,0.00,,,0.01,Wunderground v.1.15,2013-01-05 18:10:00,
2013-01-05 13:20:00,36.7,19.3,30.12,NNE,30,3.0,6.0,49,0.00,,,0.01,Wunderground v.1.15,2013-01-05 18:20:00,
2013-01-05 13:25:00,36.8,19.9,30.11,ESE,104,3.0,6.0,50,0.00,,,0.01,Wunderground v.1.15,2013-01-05 18:25:00,
2013-01-05 13:35:00,36.6,19.7,30.12,NNW,327,2.0,6.0,50,0.00,,,0.01,Wunderground v.1.15,2013-01-05 18:35:00,
2013-01-05 13:45:00,36.5,20.1,30.12,WNW,286,2.0,7.0,51,0.00,,,0.01,Wunderground v.1.15,2013-01-05 18:45:00,
2013-01-05 13:55:00,36.5,19.1,30.12,SE,129,2.0,6.0,49,0.00,,,0.01,Wunderground v.1.15,2013-01-05 18:55:00,
2013-01-05 14:05:00,36.4,19.5,30.13,NW,322,1.0,6.0,50,0.00,,,0.01,Wunderground v.1.15,2013-01-05 19:05:00,